Izmir, Turkey
Current Conditions -  °F | °C
As of 5:50 AM on Friday 19 Dec 2014 (Local Time) from LTBJ Reporting Station
Clear Clear  
Wind Chill: 46°   Ceiling: Unl
Heat Index: 46°   Visibility: 4mi
Dew Point: 46°   Wind: 2mph
Humidity: 100%   Direction: NA
Pressure: 30.09"   Gusts: NA
Location:  38.43°N, 27.15°E
Report Text: LTBJ 190250Z VRB02KT 6000 NSC 08/08 Q1019 BECMG TL0400 4000 BR
Loading
Personal Weather Stations






























Interactive Weather Map New forecast layout! Learn more

10-Day Weather Forecast

Advertisements
Track Severe Weather on mobile